createdAt,value
2022-11-16T00:01:59.954Z,5.95
2022-11-16T00:04:26.322Z,5.85
2022-11-16T00:06:52.833Z,5.82
2022-11-16T00:09:28.572Z,5.75
2022-11-16T00:11:56.953Z,5.72
2022-11-16T00:14:25.687Z,4.95
2022-11-16T00:16:52.057Z,5.22
2022-11-16T00:19:18.749Z,5.25
2022-11-16T00:21:45.104Z,6.18
2022-11-16T00:24:15.657Z,6.05
2022-11-16T00:26:42.147Z,6.03
2022-11-16T00:29:19.638Z,6.72
2022-11-16T00:31:47.045Z,6.03
2022-11-16T00:34:13.560Z,6.07
2022-11-16T00:36:40.062Z,6.80
2022-11-16T00:39:06.382Z,6.47
2022-11-16T00:41:32.729Z,6.15
2022-11-16T00:43:59.053Z,6.55
2022-11-16T00:46:25.401Z,5.15
2022-11-16T00:48:51.704Z,5.45
2022-11-16T00:51:18.137Z,5.40
2022-11-16T00:53:44.467Z,5.47
2022-11-16T00:56:10.814Z,6.07
2022-11-16T00:58:37.154Z,5.28
2022-11-16T01:01:07.886Z,5.53
2022-11-16T01:03:35.229Z,6.00
2022-11-16T01:06:02.813Z,6.25
2022-11-16T01:08:29.140Z,5.97
2022-11-16T01:10:55.585Z,6.72
2022-11-16T01:13:21.979Z,6.63
2022-11-16T01:15:48.394Z,6.13
2022-11-16T01:18:14.900Z,6.05
2022-11-16T01:20:41.327Z,6.72
2022-11-16T01:23:07.680Z,6.45
2022-11-16T01:25:34.025Z,5.45
2022-11-16T01:28:00.365Z,6.28
2022-11-16T01:30:26.745Z,6.28
2022-11-16T01:32:53.057Z,6.38
2022-11-16T01:35:21.761Z,6.07
2022-11-16T01:37:48.141Z,5.60
2022-11-16T01:40:14.754Z,6.40
2022-11-16T01:42:41.210Z,5.88
2022-11-16T01:45:16.784Z,6.20
2022-11-16T01:47:43.473Z,6.22
2022-11-16T01:50:14.477Z,6.05
2022-11-16T01:52:46.496Z,6.50
2022-11-16T01:55:13.074Z,6.55
2022-11-16T01:57:41.805Z,6.78
2022-11-16T02:00:09.883Z,5.78
2022-11-16T02:02:36.283Z,6.78
2022-11-16T02:05:03.133Z,6.75
2022-11-16T02:08:01.445Z,6.13
2022-11-16T02:11:00.555Z,5.97
2022-11-16T02:13:40.822Z,5.95
2022-11-16T02:16:28.126Z,5.80
2022-11-16T02:19:21.955Z,6.38
2022-11-16T02:22:17.122Z,7.00
2022-11-16T02:24:50.188Z,6.32
2022-11-16T02:27:22.997Z,5.53
2022-11-16T02:29:53.735Z,6.28
2022-11-16T02:32:39.815Z,5.75
2022-11-16T02:35:19.919Z,5.68
2022-11-16T02:37:51.357Z,6.18
2022-11-16T02:40:20.318Z,5.57
2022-11-16T02:42:55.376Z,5.72
2022-11-16T02:45:24.410Z,6.25
2022-11-16T02:47:51.860Z,5.78
2022-11-16T02:50:19.532Z,5.68
2022-11-16T02:52:45.902Z,6.60
2022-11-16T02:55:12.827Z,6.63
2022-11-16T02:57:48.685Z,6.25
2022-11-16T03:00:36.294Z,6.15
2022-11-16T03:03:11.155Z,5.55
2022-11-16T03:05:41.994Z,6.47
2022-11-16T03:08:22.331Z,5.97
2022-11-16T03:11:12.105Z,6.22
2022-11-16T03:13:39.893Z,6.80
2022-11-16T03:16:31.420Z,6.47
2022-11-16T03:18:59.035Z,6.55
2022-11-16T03:21:30.756Z,6.88
2022-11-16T03:23:57.545Z,7.05
2022-11-16T03:26:26.780Z,7.28
2022-11-16T03:29:14.558Z,6.68
2022-11-16T03:31:51.753Z,6.68
2022-11-16T03:34:20.534Z,6.95
2022-11-16T03:36:47.303Z,7.18
2022-11-16T03:39:19.053Z,7.00
2022-11-16T03:41:46.641Z,7.50
2022-11-16T03:44:14.535Z,7.63
2022-11-16T03:46:45.288Z,8.05
2022-11-16T03:49:11.640Z,8.18
2022-11-16T03:51:38.673Z,9.30
2022-11-16T03:54:05.238Z,8.88
2022-11-16T03:56:31.602Z,8.18
2022-11-16T03:58:57.933Z,9.05
2022-11-16T04:01:24.309Z,8.27
2022-11-16T04:03:50.817Z,8.48
2022-11-16T04:06:35.781Z,9.55
2022-11-16T04:09:28.214Z,9.73
2022-11-16T04:12:13.165Z,9.90
2022-11-16T04:15:06.245Z,9.77
2022-11-16T04:17:51.029Z,9.68
2022-11-16T04:20:35.990Z,10.35
2022-11-16T04:23:28.084Z,9.88
2022-11-16T04:25:54.476Z,10.90
2022-11-16T04:28:24.018Z,10.82
2022-11-16T04:31:14.066Z,10.65
2022-11-16T04:33:59.263Z,10.52
2022-11-16T04:36:44.256Z,10.20
2022-11-16T04:39:10.657Z,11.30
2022-11-16T04:41:55.380Z,12.43
2022-11-16T04:44:25.888Z,12.25
2022-11-16T04:47:07.067Z,12.57
2022-11-16T04:49:33.710Z,14.50
2022-11-16T04:52:00.125Z,14.05
2022-11-16T04:54:26.460Z,15.38
2022-11-16T04:56:52.778Z,15.52
2022-11-16T04:59:19.093Z,15.77
2022-11-16T05:02:04.125Z,16.52
2022-11-16T05:04:30.480Z,16.70
2022-11-16T05:06:56.838Z,17.65
2022-11-16T05:09:23.177Z,17.83
2022-11-16T05:11:49.532Z,18.10
2022-11-16T05:14:15.882Z,19.00
2022-11-16T05:16:42.463Z,19.27
2022-11-16T05:19:27.252Z,18.30
2022-11-16T05:21:53.583Z,18.58
2022-11-16T05:24:34.848Z,18.80
2022-11-16T05:27:06.674Z,17.35
2022-11-16T05:29:33.326Z,18.48
2022-11-16T05:31:59.835Z,18.65
2022-11-16T05:34:26.605Z,18.23
2022-11-16T05:36:53.099Z,18.42
2022-11-16T05:39:19.501Z,18.13
2022-11-16T05:41:46.412Z,19.48
2022-11-16T05:44:13.785Z,18.80
2022-11-16T05:46:40.194Z,19.48
2022-11-16T05:49:07.828Z,19.35
2022-11-16T05:51:38.145Z,18.10
2022-11-16T05:54:05.279Z,19.83
2022-11-16T05:56:32.278Z,19.70
2022-11-16T05:58:58.916Z,20.25
2022-11-16T06:01:25.480Z,20.77
2022-11-16T06:03:52.183Z,19.73
2022-11-16T06:06:18.758Z,20.30
2022-11-16T06:08:45.113Z,21.60
2022-11-16T06:11:12.072Z,21.80
2022-11-16T06:13:38.617Z,20.08
2022-11-16T06:16:05.318Z,21.08
2022-11-16T06:18:32.287Z,20.92
2022-11-16T06:20:58.880Z,20.67
2022-11-16T06:23:25.197Z,21.20
2022-11-16T06:25:55.134Z,20.75
2022-11-16T06:28:21.953Z,21.63
2022-11-16T06:30:48.820Z,22.33
2022-11-16T06:33:15.216Z,21.95
2022-11-16T06:35:42.348Z,22.00
2022-11-16T06:38:08.710Z,21.60
2022-11-16T06:40:35.165Z,22.13
2022-11-16T06:43:01.504Z,23.60
2022-11-16T06:45:27.852Z,21.98
2022-11-16T06:47:54.187Z,21.80
2022-11-16T06:50:20.616Z,22.35
2022-11-16T06:52:48.237Z,21.88
2022-11-16T06:55:15.257Z,22.38
2022-11-16T06:57:41.692Z,21.42
2022-11-16T07:00:10.226Z,21.85
2022-11-16T07:02:37.681Z,20.10
2022-11-16T07:05:05.223Z,21.02
2022-11-16T07:07:32.007Z,20.77
2022-11-16T07:09:58.386Z,20.15
2022-11-16T07:12:24.700Z,22.73
2022-11-16T07:14:51.061Z,21.15
2022-11-16T07:17:17.400Z,20.17
2022-11-16T07:19:43.920Z,20.05
2022-11-16T07:22:10.268Z,20.45
2022-11-16T07:24:36.616Z,19.15
2022-11-16T07:27:03.025Z,19.45
2022-11-16T07:29:29.713Z,18.83
2022-11-16T07:31:56.062Z,16.88
2022-11-16T07:34:22.394Z,16.95
2022-11-16T07:36:48.721Z,17.85
2022-11-16T07:39:15.068Z,18.67
2022-11-16T07:41:42.453Z,18.48
2022-11-16T07:44:12.017Z,18.83
2022-11-16T07:46:46.501Z,19.70
2022-11-16T07:49:17.744Z,20.15
2022-11-16T07:51:45.527Z,18.55
2022-11-16T07:54:13.061Z,19.13
2022-11-16T07:56:39.594Z,18.48
2022-11-16T07:59:06.022Z,19.15
2022-11-16T08:01:33.072Z,19.17
2022-11-16T08:04:01.873Z,18.45
2022-11-16T08:06:30.533Z,19.70
2022-11-16T08:08:58.949Z,17.80
2022-11-16T08:11:25.584Z,18.15
2022-11-16T08:13:51.955Z,17.30
2022-11-16T08:16:20.529Z,16.38
2022-11-16T08:18:47.110Z,16.80
2022-11-16T08:21:15.235Z,14.48
2022-11-16T08:23:41.870Z,13.70
2022-11-16T08:26:10.980Z,7.10
2022-11-16T08:28:37.667Z,7.05
2022-11-16T08:31:12.586Z,5.63
2022-11-16T08:33:38.948Z,4.88
2022-11-16T08:36:12.527Z,4.65
2022-11-16T08:38:42.789Z,3.88
2022-11-16T08:41:09.126Z,4.15
2022-11-16T08:43:35.817Z,3.78
2022-11-16T08:46:02.366Z,3.80
2022-11-16T08:48:28.695Z,3.60
2022-11-16T08:51:16.360Z,3.08
2022-11-16T08:53:41.608Z,3.10
2022-11-16T08:56:11.583Z,2.15
2022-11-16T08:58:38.353Z,2.50
2022-11-16T09:01:13.773Z,3.08
2022-11-16T09:03:41.064Z,2.72
2022-11-16T09:06:08.308Z,2.65
2022-11-16T09:08:37.043Z,2.55
2022-11-16T09:11:05.012Z,3.00
2022-11-16T09:13:31.600Z,2.10
2022-11-16T09:15:58.952Z,2.53
2022-11-16T09:18:26.079Z,2.22
2022-11-16T09:20:52.441Z,2.30
2022-11-16T09:23:24.919Z,2.40
2022-11-16T09:25:51.783Z,2.00
2022-11-16T09:28:18.865Z,2.40
2022-11-16T09:30:50.008Z,1.92
2022-11-16T09:33:16.409Z,1.98
2022-11-16T09:35:42.779Z,2.33
2022-11-16T09:38:14.845Z,1.77
2022-11-16T09:40:46.856Z,2.25
2022-11-16T09:43:18.820Z,2.13
2022-11-16T09:46:12.807Z,2.35
2022-11-16T09:48:39.999Z,2.30
2022-11-16T09:51:08.606Z,1.70
2022-11-16T09:53:46.134Z,2.13
2022-11-16T09:56:22.089Z,2.15
2022-11-16T09:58:55.089Z,2.03
2022-11-16T10:01:38.521Z,2.13
2022-11-16T10:04:20.214Z,1.80
2022-11-16T10:07:17.729Z,1.75
2022-11-16T10:09:45.112Z,1.80
2022-11-16T10:12:36.108Z,1.92
2022-11-16T10:15:08.151Z,2.20
2022-11-16T10:17:58.936Z,1.92
2022-11-16T10:20:59.315Z,2.33
2022-11-16T10:23:53.620Z,1.70
2022-11-16T10:26:30.194Z,2.20
2022-11-16T10:29:16.459Z,1.90
2022-11-16T10:32:03.630Z,1.95
2022-11-16T10:34:55.102Z,2.00
2022-11-16T10:37:23.001Z,1.88
2022-11-16T10:39:51.159Z,2.15
2022-11-16T10:42:23.233Z,1.83
2022-11-16T10:44:58.420Z,2.05
2022-11-16T10:47:42.459Z,1.98
2022-11-16T10:50:25.769Z,1.80
2022-11-16T10:52:52.105Z,1.92
2022-11-16T10:55:19.596Z,2.17
2022-11-16T10:57:56.526Z,2.17
2022-11-16T11:00:52.169Z,2.30
2022-11-16T11:03:30.993Z,2.22
2022-11-16T11:05:57.492Z,2.53
2022-11-16T11:08:30.980Z,2.28
2022-11-16T11:11:23.819Z,2.35
2022-11-16T11:14:14.545Z,2.00
2022-11-16T11:16:41.453Z,2.00
2022-11-16T11:19:18.826Z,2.58
2022-11-16T11:21:45.369Z,2.35
2022-11-16T11:24:43.403Z,3.05
2022-11-16T11:27:04.659Z,2.30
2022-11-16T11:29:33.109Z,2.05
2022-11-16T11:32:19.298Z,2.10
2022-11-16T11:34:54.300Z,1.92
2022-11-16T11:37:25.346Z,2.20
2022-11-16T11:40:25.157Z,1.80
2022-11-16T11:43:02.821Z,2.00
2022-11-16T11:45:33.611Z,2.38
2022-11-16T11:48:08.245Z,2.20
2022-11-16T11:50:42.105Z,1.95
2022-11-16T11:53:39.585Z,3.22
2022-11-16T11:56:06.331Z,2.90
2022-11-16T11:58:34.369Z,2.28
2022-11-16T12:01:25.733Z,2.45
2022-11-16T12:04:07.768Z,2.05
2022-11-16T12:06:46.639Z,2.28
2022-11-16T12:09:45.804Z,2.38
2022-11-16T12:12:24.546Z,2.20
2022-11-16T12:15:26.436Z,2.08
2022-11-16T12:18:15.987Z,2.42
2022-11-16T12:21:03.713Z,2.55
2022-11-16T12:23:37.465Z,2.42
2022-11-16T12:26:32.598Z,2.15
2022-11-16T12:29:32.484Z,2.65
2022-11-16T12:32:19.872Z,2.13
2022-11-16T12:35:12.956Z,2.38
2022-11-16T12:38:00.887Z,1.67
2022-11-16T12:40:35.837Z,2.10
2022-11-16T12:43:15.244Z,2.75
2022-11-16T12:45:56.584Z,2.00
2022-11-16T12:49:03.894Z,2.30
2022-11-16T12:51:53.553Z,1.80
2022-11-16T12:54:57.682Z,2.45
2022-11-16T12:57:38.563Z,2.20
2022-11-16T13:00:07.000Z,2.05
2022-11-16T13:02:41.177Z,2.97
2022-11-16T13:07:48.255Z,2.20
2022-11-16T13:10:21.136Z,2.28
2022-11-16T13:12:55.671Z,2.50
2022-11-16T13:15:33.673Z,2.33
2022-11-16T13:18:02.053Z,2.10
2022-11-16T13:20:45.361Z,2.78
2022-11-16T13:23:33.459Z,1.98
2022-11-16T13:26:10.359Z,2.40
2022-11-16T13:28:51.949Z,2.50
2022-11-16T13:31:32.523Z,3.05
2022-11-16T13:34:05.511Z,2.55
2022-11-16T13:36:39.864Z,2.38
2022-11-16T13:39:07.676Z,2.17
2022-11-16T13:41:35.684Z,2.08
2022-11-16T13:44:04.232Z,2.58
2022-11-16T13:46:56.213Z,3.50
2022-11-16T13:49:41.364Z,3.53
2022-11-16T13:54:55.948Z,2.90
2022-11-16T13:57:32.853Z,2.90
2022-11-16T14:00:01.921Z,2.80
2022-11-16T14:02:29.428Z,2.47
2022-11-16T14:04:59.525Z,2.17
2022-11-16T14:07:32.102Z,2.40
2022-11-16T14:09:59.168Z,2.75
2022-11-16T14:12:37.342Z,2.50
2022-11-16T14:15:21.911Z,2.72
2022-11-16T14:20:22.077Z,2.38
2022-11-16T14:23:07.104Z,1.97
2022-11-16T14:25:44.963Z,2.33
2022-11-16T14:28:13.381Z,1.83
2022-11-16T14:30:55.305Z,2.33
2022-11-16T14:33:30.444Z,2.03
2022-11-16T14:35:56.835Z,2.42
2022-11-16T14:38:32.472Z,2.17
2022-11-16T14:41:00.102Z,2.38
2022-11-16T14:43:40.137Z,1.95
2022-11-16T14:46:09.582Z,2.75
2022-11-16T14:48:43.952Z,2.35
2022-11-16T14:51:16.604Z,2.22
2022-11-16T14:53:52.903Z,2.70
2022-11-16T14:56:19.468Z,2.38
2022-11-16T14:59:00.979Z,2.40
2022-11-16T15:01:33.027Z,2.80
2022-11-16T15:04:04.548Z,4.15
2022-11-16T15:06:36.869Z,3.80
2022-11-16T15:09:04.605Z,2.70
2022-11-16T15:11:57.434Z,2.33
2022-11-16T15:14:30.178Z,2.35
2022-11-16T15:16:59.334Z,2.83
2022-11-16T15:19:29.948Z,2.58
2022-11-16T15:21:58.800Z,5.55
2022-11-16T15:24:32.829Z,3.45
2022-11-16T15:27:08.992Z,4.30
2022-11-16T15:29:35.522Z,3.03
2022-11-16T15:32:01.833Z,2.85
2022-11-16T15:34:28.137Z,2.90
2022-11-16T15:36:54.465Z,2.45
2022-11-16T15:39:23.005Z,2.05
2022-11-16T15:41:50.341Z,2.97
2022-11-16T15:44:18.979Z,3.17
2022-11-16T15:46:47.840Z,4.55
2022-11-16T15:49:29.090Z,6.43
2022-11-16T15:51:56.958Z,2.65
2022-11-16T15:54:30.046Z,2.22
2022-11-16T15:57:05.183Z,2.75
2022-11-16T15:59:33.369Z,3.28
2022-11-16T16:01:59.788Z,3.42
2022-11-16T16:04:26.713Z,10.02
2022-11-16T16:06:55.455Z,5.85
2022-11-16T16:09:25.219Z,4.97
2022-11-16T16:11:52.998Z,3.05
2022-11-16T16:14:29.575Z,2.60
2022-11-16T16:16:58.407Z,2.05
2022-11-16T16:19:33.873Z,1.90
2022-11-16T16:22:00.492Z,2.45
2022-11-16T16:24:53.520Z,2.42
2022-11-16T16:27:30.919Z,2.45
2022-11-16T16:30:02.545Z,2.40
2022-11-16T16:32:34.201Z,2.10
2022-11-16T16:35:02.490Z,2.00
2022-11-16T16:37:30.519Z,2.25
2022-11-16T16:39:57.304Z,2.22
2022-11-16T16:42:23.772Z,2.20
2022-11-16T16:44:50.192Z,2.85
2022-11-16T16:47:17.358Z,3.00
2022-11-16T16:49:43.776Z,2.60
2022-11-16T16:52:12.325Z,2.78
2022-11-16T16:54:38.755Z,2.15
2022-11-16T16:57:05.090Z,2.50
2022-11-16T16:59:31.501Z,2.08
2022-11-16T17:01:58.499Z,2.88
2022-11-16T17:04:25.352Z,2.70
2022-11-16T17:06:53.157Z,2.40
2022-11-16T17:09:19.978Z,2.83
2022-11-16T17:11:47.279Z,2.47
2022-11-16T17:14:13.636Z,2.38
2022-11-16T17:16:42.984Z,2.40
2022-11-16T17:19:09.741Z,2.47
2022-11-16T17:21:36.104Z,1.95
2022-11-16T17:24:02.480Z,2.55
2022-11-16T17:26:29.397Z,2.75
2022-11-16T17:28:56.920Z,2.90
2022-11-16T17:31:24.403Z,2.67
2022-11-16T17:33:50.842Z,2.85
2022-11-16T17:36:17.765Z,2.70
2022-11-16T17:38:44.313Z,2.65
2022-11-16T17:41:14.436Z,2.80
2022-11-16T17:43:42.050Z,2.78
2022-11-16T17:46:16.511Z,2.90
2022-11-16T17:48:44.246Z,2.97
2022-11-16T17:51:11.791Z,3.03
2022-11-16T17:53:39.786Z,4.03
2022-11-16T17:56:07.412Z,3.05
2022-11-16T17:58:34.248Z,2.95
2022-11-16T18:01:00.698Z,3.15
2022-11-16T18:03:28.260Z,3.03
2022-11-16T18:06:04.616Z,3.28
2022-11-16T18:08:32.542Z,3.42
2022-11-16T18:11:10.115Z,2.92
2022-11-16T18:13:37.168Z,3.30
2022-11-16T18:16:04.477Z,3.45
2022-11-16T18:18:30.876Z,4.15
2022-11-16T18:20:57.243Z,4.85
2022-11-16T18:23:23.598Z,3.45
2022-11-16T18:25:49.904Z,3.88
2022-11-16T18:28:18.373Z,3.55
2022-11-16T18:30:44.719Z,3.40
2022-11-16T18:33:11.202Z,3.83
2022-11-16T18:35:37.505Z,3.05
2022-11-16T18:38:05.465Z,3.05
2022-11-16T18:40:31.805Z,4.22
2022-11-16T18:42:58.243Z,3.83
2022-11-16T18:45:24.727Z,4.45
2022-11-16T18:47:51.175Z,3.67
2022-11-16T18:50:22.589Z,4.65
2022-11-16T18:52:52.141Z,4.18
2022-11-16T18:55:18.872Z,5.00
2022-11-16T18:57:45.195Z,5.22
2022-11-16T19:00:12.291Z,6.15
2022-11-16T19:02:38.854Z,6.25
2022-11-16T19:05:05.945Z,5.53
2022-11-16T19:07:32.359Z,5.90
2022-11-16T19:09:58.859Z,5.50
2022-11-16T19:12:25.214Z,5.65
2022-11-16T19:14:51.544Z,5.35
2022-11-16T19:17:20.165Z,5.28
2022-11-16T19:19:46.510Z,5.22
2022-11-16T19:22:12.834Z,5.45
2022-11-16T19:24:39.428Z,5.95
2022-11-16T19:27:05.777Z,5.82
2022-11-16T19:29:32.131Z,5.75
2022-11-16T19:31:58.450Z,5.28
2022-11-16T19:34:27.801Z,5.97
2022-11-16T19:36:58.390Z,4.90
2022-11-16T19:39:25.689Z,5.03
2022-11-16T19:41:52.013Z,5.32
2022-11-16T19:44:18.398Z,5.85
2022-11-16T19:46:44.951Z,5.38
2022-11-16T19:49:19.627Z,5.15
2022-11-16T19:51:46.435Z,4.75
2022-11-16T19:54:14.629Z,5.38
2022-11-16T19:56:41.736Z,5.10
2022-11-16T19:59:08.083Z,5.88
2022-11-16T20:01:34.469Z,5.25
2022-11-16T20:04:03.224Z,6.35
2022-11-16T20:06:31.851Z,6.28
2022-11-16T20:09:03.991Z,6.20
2022-11-16T20:11:31.731Z,6.05
2022-11-16T20:13:58.406Z,5.28
2022-11-16T20:16:26.828Z,5.97
2022-11-16T20:18:53.555Z,5.25
2022-11-16T20:21:23.856Z,4.88
2022-11-16T20:23:53.801Z,5.57
2022-11-16T20:26:21.169Z,5.57
2022-11-16T20:28:50.953Z,5.50
2022-11-16T20:31:19.726Z,5.05
2022-11-16T20:33:52.693Z,5.88
2022-11-16T20:36:19.686Z,6.07
2022-11-16T20:38:46.035Z,6.53
2022-11-16T20:41:22.311Z,5.95
2022-11-16T20:43:53.257Z,6.35
2022-11-16T20:46:21.571Z,5.93
2022-11-16T20:48:48.235Z,6.78
2022-11-16T20:51:19.650Z,6.45
2022-11-16T20:53:47.595Z,6.03
2022-11-16T20:56:15.504Z,5.63
2022-11-16T20:58:41.880Z,5.47
2022-11-16T21:01:11.530Z,5.68
2022-11-16T21:03:38.471Z,5.88
2022-11-16T21:06:08.460Z,5.20
2022-11-16T21:08:35.953Z,6.68
2022-11-16T21:11:02.914Z,5.85
2022-11-16T21:13:47.834Z,6.50
2022-11-16T21:16:15.326Z,8.38
2022-11-16T21:18:41.716Z,11.15
2022-11-16T21:21:12.046Z,6.93
2022-11-16T21:23:39.429Z,6.53
2022-11-16T21:26:08.033Z,7.10
2022-11-16T21:28:34.476Z,6.20
2022-11-16T21:31:03.267Z,6.53
2022-11-16T21:33:29.724Z,7.43
2022-11-16T21:35:56.469Z,8.00
2022-11-16T21:38:25.230Z,7.20
2022-11-16T21:40:51.725Z,6.18
2022-11-16T21:43:18.074Z,7.47
2022-11-16T21:45:45.774Z,7.18
2022-11-16T21:48:12.656Z,7.07
2022-11-16T21:50:39.397Z,6.32
2022-11-16T21:53:06.970Z,5.90
2022-11-16T21:55:33.432Z,6.63
2022-11-16T21:58:00.440Z,6.85
2022-11-16T22:00:27.583Z,6.68
2022-11-16T22:02:53.999Z,6.50
2022-11-16T22:05:39.034Z,6.22
2022-11-16T22:08:06.406Z,6.10
2022-11-16T22:10:33.095Z,6.22
2022-11-16T22:12:59.788Z,6.57
2022-11-16T22:15:26.571Z,5.95
2022-11-16T22:17:52.941Z,6.30
2022-11-16T22:20:19.809Z,6.00
2022-11-16T22:22:46.248Z,6.00
2022-11-16T22:25:13.892Z,6.07
2022-11-16T22:28:05.677Z,6.55
2022-11-16T22:30:26.933Z,6.03
2022-11-16T22:32:53.262Z,6.15
2022-11-16T22:35:19.584Z,4.95
2022-11-16T22:37:46.037Z,6.18
2022-11-16T22:40:17.607Z,5.32
2022-11-16T22:42:44.253Z,6.28
2022-11-16T22:45:10.649Z,6.00
2022-11-16T22:47:36.974Z,6.03
2022-11-16T22:50:03.780Z,4.95
2022-11-16T22:52:30.174Z,6.05
2022-11-16T22:54:56.486Z,5.47
2022-11-16T22:57:22.797Z,5.38
2022-11-16T22:59:49.129Z,5.60
2022-11-16T23:02:15.477Z,6.45
2022-11-16T23:04:41.805Z,5.28
2022-11-16T23:07:08.190Z,5.18
2022-11-16T23:09:34.596Z,6.13
2022-11-16T23:12:19.247Z,4.95
2022-11-16T23:15:03.951Z,4.72
2022-11-16T23:17:32.710Z,5.78
2022-11-16T23:20:18.051Z,5.10
2022-11-16T23:23:02.678Z,5.03
2022-11-16T23:25:47.671Z,5.18
2022-11-16T23:28:15.020Z,5.78
2022-11-16T23:30:41.491Z,5.07
2022-11-16T23:33:08.513Z,4.55
2022-11-16T23:35:34.970Z,4.55
2022-11-16T23:38:06.388Z,4.53
2022-11-16T23:40:37.741Z,4.78
2022-11-16T23:43:23.448Z,4.90
2022-11-16T23:45:50.517Z,4.50
2022-11-16T23:48:17.759Z,4.35
2022-11-16T23:50:45.532Z,4.32
2022-11-16T23:53:12.584Z,4.60
2022-11-16T23:55:39.788Z,4.18
2022-11-16T23:58:08.226Z,4.20
